Commit Graph
100 Commits
Author SHA1 Message Date
jbranchaud a5c73abf11 Add undef_method And The Inheritance Hierarchy as a ruby til. 2015-07-29 09:00:32 -05:00
jbranchaud 1e4ddfc8b0 Fix a typo in the name of the latest til file. 2015-07-28 21:32:09 -05:00
jbranchaud a9dcbe303c Add Passing Arbitrary Methods As Blocks as a ruby til. 2015-07-28 21:31:03 -05:00
jbranchaud efd1aa3ea0 Add a heard through comment to the latest til. 2015-07-27 21:32:46 -05:00
jbranchaud 21df8bc331 Add Excluding Files Locally as a git til. 2015-07-27 21:30:06 -05:00
jbranchaud 4aceb493fa Add Editing Code In Pry as a ruby til. 2015-07-26 20:02:02 -05:00
jbranchaud 2974c2a1fc Add some clarification to the latest til. 2015-07-25 22:24:34 -05:00
jbranchaud f9f19aefdd Add Listing Local Variables as a ruby til. 2015-07-25 22:05:58 -05:00
jbranchaud 26f0d23588 Add Ignore Changes To A Tracked File as a git til. 2015-07-24 13:50:53 -05:00
jbranchaud 23fe47ac2a Add Amend Author Of Previous Commit as a git til. 2015-07-23 18:21:17 -07:00
jbranchaud 5260685d6f Add Adjusting Window Pane Size as a tmux til. 2015-07-22 21:48:55 -07:00
jbranchaud 6476b5533e Add List All Versions Of A Function as a postgres til. 2015-07-21 09:32:22 -05:00
jbranchaud e28a67a6db Add Set End Of Line Markers as a vim til. 2015-07-20 20:39:50 -05:00
jbranchaud ada380dd7f Add Replace A Character as a vim til. 2015-07-18 17:14:05 -05:00
jbranchaud 85cbad645d Add List All The Say Voices as zsh til. 2015-07-16 21:19:54 -05:00
jbranchaud cac159dbb6 Add Ignore Poltergeist JavaScript Errors as a rails til. 2015-07-14 18:57:10 -05:00
jbranchaud 9fcf2b1a8e Add a little more discussion at the end. 2015-07-13 22:27:58 -05:00
jbranchaud b249fbfc0d Fix typo in til link. 2015-07-13 22:20:52 -05:00
jbranchaud d8f9a68684 Add Select Values For SQL Counts as a rails til. 2015-07-13 22:16:37 -05:00
jbranchaud b423057105 Add a few fixes to the latest til. 2015-07-12 16:29:02 -05:00
jbranchaud 003dc78534 Add Edit Existing Functions as a postgres til. 2015-07-12 16:27:34 -05:00
jbranchaud 0e7dfeeda5 Add Special Math Operators as a postgres til. 2015-07-11 08:28:38 -05:00
jbranchaud 3ffeb67338 Add a source to the latest til. 2015-07-10 08:49:21 -05:00
jbranchaud 707c6e4803 Add Cycle Through Layouts as a tmux til. 2015-07-10 08:46:12 -05:00
jbranchaud 6a81bd3c24 Use alternate code block syntax. 2015-07-09 21:38:59 -05:00
jbranchaud b89c702f39 Fix the backticks. 2015-07-09 21:37:33 -05:00
jbranchaud 279eed6c37 Add Edges Of The Selection as a vim til. 2015-07-09 21:34:28 -05:00
jbranchaud 627b145922 Add SSH With Port Forwarding as a zsh til. 2015-07-08 18:09:52 -05:00
jbranchaud 3b5ffd549f Add Send A Command To psql as a postgres til. 2015-07-07 19:44:35 -05:00
jbranchaud cf7ad68f52 Add List Of Plugins as a vim til. 2015-07-06 17:18:09 -05:00
jbranchaud b7dfcd4a8b Add Checking The Type Of A Value as a postgres til. 2015-07-05 10:48:22 -05:00
jbranchaud 36266e5212 Update a post til. 2015-07-04 08:36:53 -05:00
jbranchaud 1525b18ff0 Fix a typo in the latest til. 2015-07-04 08:30:04 -05:00
jbranchaud f7d8ac2dc5 Add Create A Named tmux Session as a tmux til. 2015-07-04 08:26:07 -05:00
jbranchaud 77f6ffd056 Add Question Mark Operator as a ruby til. 2015-07-03 15:52:37 -05:00
jbranchaud 287316b506 Add Intervals Of Time By Week as a postgres til. 2015-07-02 08:45:41 -05:00
jbranchaud b54a6bd807 Add Use Argument Indexes as a postgres til. 2015-07-01 20:06:55 -05:00
jbranchaud df4be8207c Fix a code block in latest til. 2015-06-30 21:24:44 -05:00
jbranchaud 887942259d Add Percent Notation as a ruby til. 2015-06-30 21:23:10 -05:00
jbranchaud 3dab4abe95 Add Temporary Tables as a postgres til. 2015-06-28 21:28:34 -05:00
jbranchaud 0859f2addd Add a link to more info in the latest til. 2015-06-27 18:29:34 -05:00
jbranchaud eb48b35597 Add Fizzbuzz With Common Table Expressions as a postgres til. 2015-06-27 11:00:38 -05:00
jbranchaud a974325ec2 Add Default Schema as a postgres til. 2015-06-26 07:50:49 -05:00
jbranchaud 242d233c15 Update the wording a bit. 2015-06-25 08:29:25 -05:00
jbranchaud b57d59f35a Add Repeat Yourself as a zsh til. 2015-06-25 08:25:44 -05:00
jbranchaud 8f6458823e Add List All Columns Of A Specific Type as a postgres til. 2015-06-24 06:46:57 -05:00
jbranchaud 864def4475 Add an h/t note to the latest til. 2015-06-23 08:49:39 -05:00
jbranchaud 85d9cb22f4 Add Temporarily Disable Triggers as a postgres til. 2015-06-23 08:43:40 -05:00
jbranchaud 03d6555531 Add Watch The Difference as a zsh til. 2015-06-22 08:22:11 -05:00
jbranchaud e913bef0ab Add Limit Execution Time Of Statements as a postgres til. 2015-06-21 10:03:59 -05:00
jbranchaud c0a79616e7 Add Auto Expanded Display as a postgres til. 2015-06-20 17:49:46 -05:00
jbranchaud 340f6bbdb6 Add Generate Series Of Numbers as a postgres til. 2015-06-19 08:26:41 -05:00
jbranchaud 2e3474eef0 Add Last Commit A File Appeared In as a git til. 2015-06-18 08:23:32 -05:00
jbranchaud 4897617949 Add String Contains Another String as a postgres til. 2015-06-17 08:27:10 -05:00
jbranchaud 3cf71e45db Add Configure The Timezone as a postgres til. 2015-06-16 08:43:21 -05:00
jbranchaud 1216ba28af Make a clarification in the latest til. 2015-06-15 08:40:05 -05:00
jbranchaud 1a6b2e5867 Add Reload The nginx Configuration as a devops til. 2015-06-15 08:33:06 -05:00
jbranchaud 438605737b Add Verbose Commits With Fugitive as a vim til. 2015-06-14 22:49:56 -05:00
jbranchaud fe7e5f816a Add Using Intervals To Offset Time as a postgres til. 2015-06-13 11:47:11 -05:00
jbranchaud 8b919ba20e Remove a line that I shouldn't have committed. 2015-06-12 16:08:38 -05:00
jbranchaud 059209861a Add Swap Occurrences Of Two Words as a vim til. 2015-06-12 16:05:05 -05:00
jbranchaud 8393c5c0c2 Add a heard through note. 2015-06-11 19:59:05 -05:00
jbranchaud fdd02b2253 Add Check If A Port Is In Use as a zsh til. 2015-06-11 19:55:35 -05:00
jbranchaud f55552bda2 Use the correct level of nesting for javascript. 2015-06-10 08:29:53 -05:00
jbranchaud 74a275079e Add Count Records By Type as a postgres til. 2015-06-10 08:28:17 -05:00
jbranchaud 104d5ef082 Add End Of The Word as a vim til. 2015-06-09 08:30:29 -05:00
jbranchaud a2f47c339d Add Retrieve An Object If It Exists as a rails til. 2015-06-08 08:27:06 -05:00
jbranchaud ae2ec1f054 Link to Hashrocket's TIL collection. 2015-06-07 21:05:38 -05:00
jbranchaud bbe2f897eb Add Who Is The Current User as a postgres til. 2015-06-07 21:03:02 -05:00
jbranchaud 8404cdead8 Add Coerce The Current Filetype as a vim til. 2015-06-06 11:17:02 -05:00
jbranchaud 2159b74b03 Add Override The Initial Sequence Value as a ruby til. 2015-06-05 10:33:34 -05:00
jbranchaud 07ed19021b Add some minor fixes to the latest til. 2015-06-05 00:38:43 -05:00
jbranchaud eea2dd8c1f Add List All Key Bindings as a tmux til. 2015-06-04 20:20:09 -05:00
jbranchaud 5483aa8dd7 Add some minor tweaks to the code blocks. 2015-06-03 08:40:26 -05:00
jbranchaud 89d1274f81 Add Extracting Nested JSON Data as a postgres til. 2015-06-03 08:37:46 -05:00
jbranchaud 0ddcca3927 Add Set Your Color Scheme as a vim til. 2015-06-02 08:19:01 -05:00
jbranchaud 7afd3debe4 Add FactoryGirl Sequences as a ruby til. 2015-06-01 08:02:03 -05:00
jbranchaud 236887ec96 Add Comparing Class Hierarchy Relationships as a Ruby til. 2015-05-31 10:12:14 -05:00
jbranchaud f5621a795a Add Toggling The Pager In PSQL as a postgres til. 2015-05-30 16:13:27 -05:00
jbranchaud 92a55071db Add Check Your Current Color Scheme as a vim til. 2015-05-30 14:31:03 -05:00
jbranchaud 3de74640b3 Add some small fixes to the latest til. 2015-05-29 21:37:06 -05:00
jbranchaud 00c018be30 Add Incremental Searching as a vim til. 2015-05-29 21:34:33 -05:00
jbranchaud 360f8049ed Add Check The Status Of All Services as a devops til. 2015-05-28 17:55:18 -05:00
jbranchaud 24445ccd3b Add Wipe A Heroku Postgres Database as a devops til. 2015-05-27 20:40:37 -05:00
jbranchaud fec8728b27 Fix a typo in the latest post. 2015-05-26 22:59:22 -05:00
jbranchaud 9ec4dbc4e8 Add some clarifications. 2015-05-26 22:57:09 -05:00
jbranchaud 8c9d8fd71a Add Throttling A Function Call as a javascript til. 2015-05-26 22:49:32 -05:00
jbranchaud 5cdc497974 Add a heard through not at the bottom of the latest til. 2015-05-25 21:34:39 -05:00
jbranchaud c517d5c6c8 Add Saying Yes as a zsh til. 2015-05-25 21:31:38 -05:00
jbranchaud 7c9a1ed839 Add Switch Versions of a Brew Formula as a zsh til. 2015-05-25 20:30:17 -05:00
jbranchaud ffe3bf421a Move tmux in your tmux til from the zsh section to the tmux section 2015-05-25 20:26:55 -05:00
jbranchaud 25fd6dc554 Fix a couple small typos in the latest post. 2015-05-24 11:03:51 -05:00
jbranchaud e27299fcc0 Add Reclaiming The Entire Window as a tmux til. 2015-05-24 11:01:33 -05:00
jbranchaud f419bef093 Add Disassemble Some Codes as a ruby til. 2015-05-23 16:47:23 -05:00
jbranchaud b3d4535e83 Add Stashing Only Unstaged Changes as a git til. 2015-05-22 09:04:52 -05:00
jbranchaud 4c5a0274d8 Add Organizing Windows as a tmux til. 2015-05-21 22:09:29 -05:00
jbranchaud 7beead4202 Add List Filenames Without The Diffs as a git til. 2015-05-20 17:00:22 -05:00
jbranchaud 06a7d5c8ca Add Re-indenting Your Code as a vim til. 2015-05-19 08:20:00 -05:00
jbranchaud ffce153a3d Change Source: to h/t (heard through). 2015-05-18 08:45:21 -05:00
jbranchaud 6a01c95ef3 Add Vim Without The Extras as a vim til. 2015-05-18 08:43:26 -05:00